createdAt,value
2019-05-14T00:03:23.054Z,29.69
2019-05-14T00:06:32.888Z,29.77
2019-05-14T00:12:11.088Z,29.78
2019-05-14T00:14:44.896Z,29.95
2019-05-14T00:17:16.646Z,30.14
2019-05-14T00:19:47.642Z,30.24
2019-05-14T00:22:21.671Z,30.23
2019-05-14T00:24:52.863Z,30.31
2019-05-14T00:27:24.776Z,30.38
2019-05-14T00:32:46.501Z,30.73
2019-05-14T00:38:07.731Z,30.77
2019-05-14T00:40:48.217Z,30.97
2019-05-14T00:43:38.854Z,31.43
2019-05-14T00:46:11.832Z,31.43
2019-05-14T00:48:44.191Z,31.28
2019-05-14T00:51:35.151Z,31.29
2019-05-14T00:54:11.179Z,31.41
2019-05-14T00:57:02.383Z,31.46
2019-05-14T00:59:36.562Z,31.66
2019-05-14T01:02:08.587Z,31.86
2019-05-14T01:05:01.712Z,32.01
2019-05-14T01:07:35.457Z,31.96
2019-05-14T01:10:11.460Z,32.30
2019-05-14T01:12:43.150Z,32.45
2019-05-14T01:15:33.999Z,32.50
2019-05-14T01:18:24.522Z,32.63
2019-05-14T01:26:31.615Z,32.92
2019-05-14T01:29:22.192Z,33.00
2019-05-14T01:34:47.039Z,32.98
2019-05-14T01:37:18.755Z,33.13
2019-05-14T01:39:52.037Z,33.19
2019-05-14T01:45:31.417Z,33.59
2019-05-14T01:48:02.218Z,33.65
2019-05-14T01:50:33.918Z,33.83
2019-05-14T01:53:05.743Z,33.89
2019-05-14T01:55:37.443Z,33.84
2019-05-14T02:00:52.637Z,34.09
2019-05-14T02:03:24.609Z,34.29
2019-05-14T02:06:15.482Z,34.24
2019-05-14T02:11:51.851Z,34.17
2019-05-14T02:14:24.863Z,34.35
2019-05-14T02:16:56.629Z,34.35
2019-05-14T02:19:28.371Z,34.60
2019-05-14T02:22:02.120Z,34.42
2019-05-14T02:24:33.561Z,34.72
2019-05-14T02:27:05.465Z,34.97
2019-05-14T02:29:37.322Z,35.03
2019-05-14T02:32:10.556Z,35.10
2019-05-14T02:34:42.730Z,35.27
2019-05-14T02:37:14.434Z,35.42
2019-05-14T02:39:46.305Z,35.26
2019-05-14T02:42:29.853Z,35.21
2019-05-14T02:44:53.536Z,35.40
2019-05-14T02:47:25.222Z,35.45
2019-05-14T02:50:05.424Z,35.14
2019-05-14T02:53:39.599Z,35.24
2019-05-14T02:56:29.320Z,35.40
2019-05-14T02:59:20.917Z,35.78
2019-05-14T03:02:11.722Z,36.09
2019-05-14T03:05:22.988Z,36.31
2019-05-14T03:16:32.555Z,36.77
2019-05-14T03:19:00.443Z,36.63
2019-05-14T03:21:32.233Z,36.75
2019-05-14T03:24:04.039Z,36.83
2019-05-14T03:26:39.480Z,37.04
2019-05-14T03:29:10.076Z,37.37
2019-05-14T03:34:32.175Z,37.55
2019-05-14T03:37:03.126Z,37.50
2019-05-14T03:42:19.419Z,37.36
2019-05-14T03:44:50.575Z,37.58
2019-05-14T03:47:22.444Z,37.87
2019-05-14T03:49:53.323Z,37.93
2019-05-14T03:52:25.294Z,38.16
2019-05-14T03:55:16.174Z,38.16
2019-05-14T03:57:50.003Z,38.36
2019-05-14T04:00:50.196Z,37.70
2019-05-14T04:03:20.560Z,37.70
2019-05-14T04:09:00.278Z,38.66
2019-05-14T04:11:50.327Z,38.33
2019-05-14T04:14:24.609Z,37.73
2019-05-14T04:17:05.257Z,37.15
2019-05-14T04:19:29.987Z,36.60
2019-05-14T04:22:01.792Z,36.45
2019-05-14T04:24:52.791Z,36.21
2019-05-14T04:27:34.913Z,35.70
2019-05-14T04:30:29.070Z,35.30
2019-05-14T04:33:20.973Z,35.08
2019-05-14T04:35:52.926Z,34.93
2019-05-14T04:38:24.777Z,34.56
2019-05-14T04:41:39.114Z,34.22
2019-05-14T04:47:41.940Z,33.78
2019-05-14T04:50:31.505Z,33.78
2019-05-14T04:53:13.885Z,33.42
2019-05-14T04:55:49.218Z,33.13
2019-05-14T04:58:21.636Z,32.73
2019-05-14T05:03:40.090Z,32.63
2019-05-14T05:06:10.532Z,32.35
2019-05-14T05:08:42.437Z,32.08
2019-05-14T05:11:52.350Z,31.62
2019-05-14T05:14:23.985Z,31.49
2019-05-14T05:16:59.473Z,31.43
2019-05-14T05:24:54.625Z,30.88
2019-05-14T05:35:59.249Z,30.13
2019-05-14T05:38:49.756Z,30.05
2019-05-14T05:41:39.474Z,29.96
2019-05-14T05:44:30.361Z,29.65
2019-05-14T05:47:21.051Z,29.49
2019-05-14T05:50:11.731Z,29.27
2019-05-14T05:55:34.230Z,29.07
2019-05-14T05:58:22.397Z,29.29
2019-05-14T06:01:20.830Z,29.07
2019-05-14T06:07:02.830Z,28.73
2019-05-14T06:09:37.942Z,28.33
2019-05-14T06:12:12.083Z,28.31
2019-05-14T06:18:18.058Z,27.95
2019-05-14T06:20:54.280Z,27.97
2019-05-14T06:23:45.517Z,27.16
2019-05-14T06:26:19.022Z,26.91
2019-05-14T06:31:40.893Z,26.06
2019-05-14T06:34:52.047Z,25.95
2019-05-14T06:37:24.041Z,25.68
2019-05-14T06:43:48.868Z,25.31
2019-05-14T06:49:55.289Z,25.58
2019-05-14T06:52:45.270Z,25.79
2019-05-14T06:55:35.124Z,25.20
2019-05-14T06:58:20.492Z,23.83
2019-05-14T07:01:57.979Z,23.83
2019-05-14T07:04:58.902Z,24.40
2019-05-14T07:07:50.862Z,24.36
2019-05-14T07:10:22.738Z,24.15
2019-05-14T07:13:18.698Z,24.15
2019-05-14T07:15:50.328Z,24.76
2019-05-14T07:19:15.714Z,24.52
2019-05-14T07:21:04.623Z,23.77
2019-05-14T07:24:19.435Z,24.19
2019-05-14T07:27:28.842Z,24.18
2019-05-14T07:30:19.425Z,24.49
2019-05-14T07:36:58.664Z,23.64
2019-05-14T07:40:01.700Z,23.90
2019-05-14T07:43:08.846Z,24.27
2019-05-14T07:45:40.578Z,24.62
2019-05-14T07:48:31.235Z,24.45
2019-05-14T07:51:08.919Z,24.47
2019-05-14T07:53:51.789Z,24.08
2019-05-14T07:56:54.617Z,24.13
2019-05-14T07:59:28.561Z,24.42
2019-05-14T08:05:10.991Z,24.83
2019-05-14T08:10:35.532Z,24.71
2019-05-14T08:13:08.434Z,24.99
2019-05-14T08:15:59.231Z,24.96
2019-05-14T08:28:04.690Z,23.85
2019-05-14T08:43:24.216Z,23.81
2019-05-14T08:45:58.542Z,24.04
2019-05-14T08:48:51.517Z,23.19
2019-05-14T08:54:46.322Z,23.14
2019-05-14T08:57:50.610Z,23.58
2019-05-14T09:00:24.398Z,24.12
2019-05-14T09:12:12.745Z,23.29
2019-05-14T09:15:28.804Z,22.44
2019-05-14T09:19:30.712Z,21.80
2019-05-14T09:21:39.547Z,22.60
2019-05-14T09:24:09.834Z,22.48
2019-05-14T09:32:44.263Z,22.12
2019-05-14T09:35:43.747Z,21.20
2019-05-14T09:38:29.867Z,20.76
2019-05-14T09:41:15.470Z,20.72
2019-05-14T09:47:08.592Z,19.92
2019-05-14T09:52:53.759Z,20.50
2019-05-14T09:56:05.663Z,20.13
2019-05-14T09:58:49.598Z,20.24
2019-05-14T10:02:09.215Z,20.32
2019-05-14T10:04:44.429Z,20.36
2019-05-14T10:14:03.065Z,21.33
2019-05-14T10:16:38.243Z,21.16
2019-05-14T10:19:29.672Z,21.61
2019-05-14T10:25:35.078Z,21.49
2019-05-14T10:28:41.358Z,21.02
2019-05-14T10:31:59.200Z,20.21
2019-05-14T10:35:02.618Z,20.37
2019-05-14T10:37:34.527Z,19.92
2019-05-14T10:40:24.353Z,20.10
2019-05-14T10:43:28.717Z,19.88
2019-05-14T10:52:28.789Z,20.94
2019-05-14T11:07:18.622Z,19.85
2019-05-14T11:17:54.507Z,19.94
2019-05-14T11:20:35.843Z,19.88
2019-05-14T11:23:29.620Z,19.35
2019-05-14T11:26:49.937Z,19.76
2019-05-14T11:29:42.841Z,19.76
2019-05-14T11:35:50.631Z,19.05
2019-05-14T11:42:16.699Z,20.19
2019-05-14T11:48:42.414Z,19.78
2019-05-14T11:54:29.053Z,20.30
2019-05-14T11:59:44.539Z,20.06
2019-05-14T12:02:46.507Z,20.34
2019-05-14T12:05:20.751Z,19.60
2019-05-14T12:08:28.812Z,19.85
2019-05-14T12:17:16.737Z,20.81
2019-05-14T12:20:12.227Z,20.50
2019-05-14T12:22:48.804Z,20.57
2019-05-14T12:25:52.579Z,18.87
2019-05-14T12:29:19.926Z,18.54
2019-05-14T12:44:10.155Z,18.77
2019-05-14T12:49:11.518Z,19.53
2019-05-14T12:58:28.710Z,19.30
2019-05-14T13:01:31.223Z,19.36
2019-05-14T13:04:21.934Z,19.73
2019-05-14T13:07:13.277Z,20.03
2019-05-14T13:13:29.185Z,19.17
2019-05-14T13:16:13.784Z,19.00
2019-05-14T13:19:14.349Z,19.13
2019-05-14T13:22:14.243Z,18.62
2019-05-14T13:33:39.290Z,19.69
2019-05-14T13:36:11.826Z,19.69
2019-05-14T13:38:43.804Z,18.42
2019-05-14T13:44:29.219Z,17.25
2019-05-14T13:47:02.025Z,17.67
2019-05-14T13:49:35.611Z,18.50
2019-05-14T13:55:10.449Z,19.07
2019-05-14T14:01:15.668Z,18.01
2019-05-14T14:04:02.231Z,18.45
2019-05-14T14:07:03.984Z,18.34
2019-05-14T14:13:01.171Z,18.74
2019-05-14T14:16:06.656Z,18.53
2019-05-14T14:18:39.539Z,18.59
2019-05-14T14:22:09.948Z,18.43
2019-05-14T14:24:56.076Z,19.09
2019-05-14T14:27:40.953Z,18.61
2019-05-14T14:30:39.446Z,18.81
2019-05-14T14:36:20.282Z,18.55
2019-05-14T14:39:05.831Z,18.41
2019-05-14T14:47:29.344Z,17.17
2019-05-14T14:50:34.106Z,17.47
2019-05-14T14:56:48.693Z,18.53
2019-05-14T15:00:29.243Z,18.71
2019-05-14T15:02:53.351Z,18.39
2019-05-14T15:05:45.376Z,17.45
2019-05-14T15:08:38.749Z,17.70
2019-05-14T15:11:11.767Z,17.71
2019-05-14T15:14:05.113Z,18.11
2019-05-14T15:16:58.590Z,18.44
2019-05-14T15:20:01.158Z,19.14
2019-05-14T15:23:03.311Z,19.65
2019-05-14T15:25:35.254Z,19.43
2019-05-14T15:28:26.045Z,18.60
2019-05-14T15:31:19.123Z,17.88
2019-05-14T15:34:41.847Z,16.72
2019-05-14T15:37:42.713Z,16.74
2019-05-14T15:40:34.088Z,17.74
2019-05-14T15:43:05.937Z,18.33
2019-05-14T15:48:40.659Z,19.31
2019-05-14T15:54:11.260Z,18.15
2019-05-14T16:00:01.121Z,18.73
2019-05-14T16:02:52.594Z,19.31
2019-05-14T16:05:34.818Z,19.41
2019-05-14T16:08:25.703Z,19.48
2019-05-14T16:11:39.195Z,19.51
2019-05-14T16:14:12.598Z,19.54
2019-05-14T16:19:28.532Z,20.12
2019-05-14T16:22:01.473Z,20.21
2019-05-14T16:24:33.096Z,20.72
2019-05-14T16:27:04.798Z,20.34
2019-05-14T16:29:45.108Z,20.02
2019-05-14T16:32:48.564Z,19.49
2019-05-14T16:35:23.920Z,19.61
2019-05-14T16:38:14.798Z,19.56
2019-05-14T16:41:05.381Z,19.08
2019-05-14T16:43:39.977Z,19.04
2019-05-14T16:46:51.770Z,18.14
2019-05-14T16:49:48.620Z,18.03
2019-05-14T16:52:41.706Z,17.87
2019-05-14T16:55:22.627Z,17.64
2019-05-14T16:58:03.286Z,17.91
2019-05-14T17:00:53.972Z,18.12
2019-05-14T17:03:45.081Z,18.22
2019-05-14T17:06:29.375Z,18.34
2019-05-14T17:08:50.588Z,18.29
2019-05-14T17:11:41.514Z,18.73
2019-05-14T17:17:16.021Z,19.08
2019-05-14T17:19:48.132Z,19.08
2019-05-14T17:22:28.707Z,19.11
2019-05-14T17:25:27.099Z,19.33
2019-05-14T17:30:50.769Z,19.17
2019-05-14T17:34:20.385Z,19.81
2019-05-14T17:36:53.871Z,19.54
2019-05-14T17:42:29.664Z,20.55
2019-05-14T17:48:33.194Z,21.66
2019-05-14T17:51:28.454Z,22.04
2019-05-14T17:57:01.925Z,22.79
2019-05-14T18:02:28.752Z,23.18
2019-05-14T18:05:00.404Z,23.45
2019-05-14T18:07:32.461Z,23.61
2019-05-14T18:10:23.055Z,23.61
2019-05-14T18:13:10.718Z,23.88
2019-05-14T18:16:01.346Z,23.94
2019-05-14T18:18:51.086Z,24.27
2019-05-14T18:21:44.390Z,24.42
2019-05-14T18:27:24.261Z,25.11
2019-05-14T18:35:44.987Z,25.62
2019-05-14T18:41:04.584Z,26.09
2019-05-14T18:43:36.584Z,26.09
2019-05-14T18:46:41.074Z,26.27
2019-05-14T18:49:00.730Z,26.40
2019-05-14T18:51:32.670Z,26.97
2019-05-14T18:54:42.996Z,26.97
2019-05-14T19:03:15.235Z,27.33
2019-05-14T19:06:05.788Z,27.75
2019-05-14T19:11:40.406Z,28.39
2019-05-14T19:14:31.381Z,28.61
2019-05-14T19:17:22.294Z,28.90
2019-05-14T19:23:18.871Z,29.44
2019-05-14T19:31:27.787Z,29.89
2019-05-14T19:37:33.208Z,30.17
2019-05-14T19:39:58.706Z,30.66
2019-05-14T19:42:30.970Z,30.66
2019-05-14T19:45:24.648Z,30.87
2019-05-14T19:47:58.415Z,30.82
2019-05-14T19:50:51.417Z,31.33
2019-05-14T19:53:42.314Z,31.33
2019-05-14T19:59:54.504Z,31.98
2019-05-14T20:05:21.501Z,32.24
2019-05-14T20:08:32.623Z,32.23
2019-05-14T20:11:05.193Z,32.42
2019-05-14T20:13:39.390Z,32.62
2019-05-14T20:16:10.384Z,32.71
2019-05-14T20:24:22.066Z,32.87
2019-05-14T20:30:09.103Z,33.00
2019-05-14T20:39:18.078Z,33.11
2019-05-14T20:42:01.471Z,33.33
2019-05-14T20:45:05.207Z,33.44
2019-05-14T20:47:39.141Z,33.23
2019-05-14T20:59:38.959Z,32.83
2019-05-14T21:02:14.272Z,33.04
2019-05-14T21:08:22.268Z,33.31
2019-05-14T21:11:31.724Z,33.51
2019-05-14T21:30:29.428Z,34.27
2019-05-14T21:39:24.155Z,34.45
2019-05-14T21:41:59.511Z,34.48
2019-05-14T21:44:51.609Z,34.48
2019-05-14T21:53:42.778Z,34.57
2019-05-14T21:59:48.126Z,34.54
2019-05-14T22:05:28.399Z,34.60
2019-05-14T22:08:27.901Z,34.66
2019-05-14T22:11:40.109Z,34.81
2019-05-14T22:17:20.252Z,35.04
2019-05-14T22:23:48.359Z,35.19
2019-05-14T22:26:44.413Z,35.27
2019-05-14T22:32:40.351Z,35.38
2019-05-14T22:35:42.819Z,35.53
2019-05-14T22:39:01.612Z,35.58
2019-05-14T22:44:39.913Z,35.72
2019-05-14T22:47:13.605Z,35.80
2019-05-14T22:50:26.063Z,35.81
2019-05-14T22:59:29.359Z,36.16
2019-05-14T23:02:01.196Z,36.16
2019-05-14T23:04:33.093Z,36.08
2019-05-14T23:07:05.015Z,35.68
2019-05-14T23:09:55.433Z,35.44
2019-05-14T23:12:28.732Z,35.42
2019-05-14T23:15:19.711Z,35.37
2019-05-14T23:17:53.272Z,35.37
2019-05-14T23:20:49.027Z,35.56
2019-05-14T23:23:39.425Z,35.27
2019-05-14T23:29:18.399Z,35.75
2019-05-14T23:32:28.542Z,36.06
2019-05-14T23:35:49.390Z,35.95
2019-05-14T23:38:33.147Z,36.06
2019-05-14T23:41:16.622Z,36.06
2019-05-14T23:43:39.315Z,35.98
2019-05-14T23:49:02.571Z,36.22
2019-05-14T23:54:58.904Z,36.40
2019-05-14T23:57:30.770Z,36.52
